sensor_id;sensor_type;location;lat;lon;timestamp;pressure;altitude;pressure_sealevel;temperature;humidity
61488;BME280;47351;53.326;-6.298;2022-10-16T00:01:23;99609.36;;;7.86;78.64
61488;BME280;47351;53.326;-6.298;2022-10-16T00:04:02;99607.31;;;7.86;78.70
61488;BME280;47351;53.326;-6.298;2022-10-16T00:06:34;99618.00;;;7.85;78.70
61488;BME280;47351;53.326;-6.298;2022-10-16T00:09:06;99624.07;;;7.85;78.62
61488;BME280;47351;53.326;-6.298;2022-10-16T00:11:41;99627.46;;;7.85;78.56
61488;BME280;47351;53.326;-6.298;2022-10-16T00:14:28;99626.59;;;7.85;78.49
61488;BME280;47351;53.326;-6.298;2022-10-16T00:17:03;99632.05;;;7.83;78.43
61488;BME280;47351;53.326;-6.298;2022-10-16T00:19:37;99634.98;;;7.83;78.62
61488;BME280;47351;53.326;-6.298;2022-10-16T00:22:11;99640.45;;;7.82;78.70
61488;BME280;47351;53.326;-6.298;2022-10-16T00:24:47;99645.11;;;7.80;78.76
61488;BME280;47351;53.326;-6.298;2022-10-16T00:27:19;99648.66;;;7.78;79.06
61488;BME280;47351;53.326;-6.298;2022-10-16T00:29:53;99649.54;;;7.76;79.15
61488;BME280;47351;53.326;-6.298;2022-10-16T00:32:33;99656.40;;;7.75;79.27
61488;BME280;47351;53.326;-6.298;2022-10-16T00:35:06;99657.80;;;7.74;79.18
61488;BME280;47351;53.326;-6.298;2022-10-16T00:37:37;99658.30;;;7.73;79.20
61488;BME280;47351;53.326;-6.298;2022-10-16T00:40:10;99665.39;;;7.71;79.26
61488;BME280;47351;53.326;-6.298;2022-10-16T00:42:45;99665.75;;;7.71;79.21
61488;BME280;47351;53.326;-6.298;2022-10-16T00:45:21;99667.27;;;7.72;79.08
61488;BME280;47351;53.326;-6.298;2022-10-16T00:47:54;99667.23;;;7.71;78.94
61488;BME280;47351;53.326;-6.298;2022-10-16T00:50:30;99671.05;;;7.71;78.89
61488;BME280;47351;53.326;-6.298;2022-10-16T00:53:03;99675.01;;;7.71;78.83
61488;BME280;47351;53.326;-6.298;2022-10-16T00:55:35;99688.38;;;7.69;78.82
61488;BME280;47351;53.326;-6.298;2022-10-16T00:58:11;99691.60;;;7.67;78.64
61488;BME280;47351;53.326;-6.298;2022-10-16T01:00:43;99696.25;;;7.65;78.53
61488;BME280;47351;53.326;-6.298;2022-10-16T01:03:28;99695.31;;;7.63;78.50
61488;BME280;47351;53.326;-6.298;2022-10-16T01:06:27;99695.08;;;7.62;78.44
61488;BME280;47351;53.326;-6.298;2022-10-16T01:09:16;99695.98;;;7.61;78.36
61488;BME280;47351;53.326;-6.298;2022-10-16T01:11:57;99693.20;;;7.60;78.51
61488;BME280;47351;53.326;-6.298;2022-10-16T01:14:42;99685.52;;;7.60;78.49
61488;BME280;47351;53.326;-6.298;2022-10-16T01:17:21;99692.48;;;7.60;78.51
61488;BME280;47351;53.326;-6.298;2022-10-16T01:20:03;99697.67;;;7.61;78.62
61488;BME280;47351;53.326;-6.298;2022-10-16T01:22:42;99698.02;;;7.63;78.44
61488;BME280;47351;53.326;-6.298;2022-10-16T01:25:22;99704.17;;;7.64;78.27
61488;BME280;47351;53.326;-6.298;2022-10-16T01:27:57;99702.91;;;7.62;78.08
61488;BME280;47351;53.326;-6.298;2022-10-16T01:30:32;99710.06;;;7.60;77.99
61488;BME280;47351;53.326;-6.298;2022-10-16T01:33:08;99713.38;;;7.59;77.97
61488;BME280;47351;53.326;-6.298;2022-10-16T01:35:44;99711.85;;;7.59;77.96
61488;BME280;47351;53.326;-6.298;2022-10-16T01:38:19;99711.81;;;7.59;77.97
61488;BME280;47351;53.326;-6.298;2022-10-16T01:40:55;99722.80;;;7.59;77.82
61488;BME280;47351;53.326;-6.298;2022-10-16T01:43:33;99727.63;;;7.59;77.67
61488;BME280;47351;53.326;-6.298;2022-10-16T01:46:08;99728.75;;;7.56;77.57
61488;BME280;47351;53.326;-6.298;2022-10-16T01:48:41;99738.05;;;7.54;77.51
61488;BME280;47351;53.326;-6.298;2022-10-16T01:51:14;99749.76;;;7.53;77.43
61488;BME280;47351;53.326;-6.298;2022-10-16T01:53:50;99763.47;;;7.51;77.43
61488;BME280;47351;53.326;-6.298;2022-10-16T01:56:30;99770.33;;;7.48;77.47
61488;BME280;47351;53.326;-6.298;2022-10-16T01:59:04;99770.64;;;7.45;77.59
61488;BME280;47351;53.326;-6.298;2022-10-16T02:01:39;99783.51;;;7.42;77.67
61488;BME280;47351;53.326;-6.298;2022-10-16T02:04:15;99788.81;;;7.41;77.86
61488;BME280;47351;53.326;-6.298;2022-10-16T02:06:47;99778.80;;;7.40;77.95
61488;BME280;47351;53.326;-6.298;2022-10-16T02:09:19;99783.70;;;7.39;77.99
61488;BME280;47351;53.326;-6.298;2022-10-16T02:11:52;99780.16;;;7.37;77.98
61488;BME280;47351;53.326;-6.298;2022-10-16T02:14:25;99784.66;;;7.34;78.14
61488;BME280;47351;53.326;-6.298;2022-10-16T02:16:57;99796.42;;;7.34;78.18
61488;BME280;47351;53.326;-6.298;2022-10-16T02:19:29;99801.23;;;7.32;78.33
61488;BME280;47351;53.326;-6.298;2022-10-16T02:22:03;99805.23;;;7.31;78.51
61488;BME280;47351;53.326;-6.298;2022-10-16T02:24:50;99804.25;;;7.31;78.51
61488;BME280;47351;53.326;-6.298;2022-10-16T02:27:26;99807.65;;;7.30;78.57
61488;BME280;47351;53.326;-6.298;2022-10-16T02:30:03;99811.61;;;7.30;78.61
61488;BME280;47351;53.326;-6.298;2022-10-16T02:32:41;99817.73;;;7.29;78.39
61488;BME280;47351;53.326;-6.298;2022-10-16T02:35:15;99820.05;;;7.27;78.30
61488;BME280;47351;53.326;-6.298;2022-10-16T02:37:48;99822.58;;;7.27;78.34
61488;BME280;47351;53.326;-6.298;2022-10-16T02:40:20;99831.33;;;7.28;78.29
61488;BME280;47351;53.326;-6.298;2022-10-16T02:42:54;99835.30;;;7.29;78.07
61488;BME280;47351;53.326;-6.298;2022-10-16T02:45:26;99845.54;;;7.31;77.87
61488;BME280;47351;53.326;-6.298;2022-10-16T02:47:57;99841.90;;;7.34;77.66
61488;BME280;47351;53.326;-6.298;2022-10-16T02:50:29;99846.83;;;7.36;77.42
61488;BME280;47351;53.326;-6.298;2022-10-16T02:53:00;99851.25;;;7.36;77.07
61488;BME280;47351;53.326;-6.298;2022-10-16T02:55:38;99861.94;;;7.37;76.87
61488;BME280;47351;53.326;-6.298;2022-10-16T02:58:12;99861.69;;;7.38;76.49
61488;BME280;47351;53.326;-6.298;2022-10-16T03:00:43;99865.55;;;7.40;76.17
61488;BME280;47351;53.326;-6.298;2022-10-16T03:03:14;99867.73;;;7.41;75.76
61488;BME280;47351;53.326;-6.298;2022-10-16T03:05:46;99872.82;;;7.42;75.42
61488;BME280;47351;53.326;-6.298;2022-10-16T03:08:17;99873.75;;;7.43;74.98
61488;BME280;47351;53.326;-6.298;2022-10-16T03:11:01;99878.34;;;7.47;74.66
61488;BME280;47351;53.326;-6.298;2022-10-16T03:13:32;99878.41;;;7.50;74.17
61488;BME280;47351;53.326;-6.298;2022-10-16T03:16:04;99881.84;;;7.49;73.94
61488;BME280;47351;53.326;-6.298;2022-10-16T03:18:35;99895.63;;;7.49;73.68
61488;BME280;47351;53.326;-6.298;2022-10-16T03:21:07;99901.54;;;7.48;73.51
61488;BME280;47351;53.326;-6.298;2022-10-16T03:23:38;99901.18;;;7.44;73.44
61488;BME280;47351;53.326;-6.298;2022-10-16T03:26:14;99905.89;;;7.40;73.43
61488;BME280;47351;53.326;-6.298;2022-10-16T03:28:46;99914.61;;;7.34;73.57
61488;BME280;47351;53.326;-6.298;2022-10-16T03:31:17;99917.05;;;7.30;73.88
61488;BME280;47351;53.326;-6.298;2022-10-16T03:33:49;99912.63;;;7.25;74.12
61488;BME280;47351;53.326;-6.298;2022-10-16T03:36:20;99922.44;;;7.20;74.36
61488;BME280;47351;53.326;-6.298;2022-10-16T03:38:51;99922.20;;;7.16;74.55
61488;BME280;47351;53.326;-6.298;2022-10-16T03:41:32;99923.10;;;7.12;74.69
61488;BME280;47351;53.326;-6.298;2022-10-16T03:44:03;99924.49;;;7.11;74.85
61488;BME280;47351;53.326;-6.298;2022-10-16T03:46:34;99931.71;;;7.09;75.00
61488;BME280;47351;53.326;-6.298;2022-10-16T03:49:06;99943.29;;;7.09;75.04
61488;BME280;47351;53.326;-6.298;2022-10-16T03:51:38;99953.17;;;7.10;75.06
61488;BME280;47351;53.326;-6.298;2022-10-16T03:54:11;99958.75;;;7.09;75.09
61488;BME280;47351;53.326;-6.298;2022-10-16T03:56:42;99966.42;;;7.08;75.11
61488;BME280;47351;53.326;-6.298;2022-10-16T03:59:13;99959.27;;;7.07;75.07
61488;BME280;47351;53.326;-6.298;2022-10-16T04:01:44;99970.73;;;7.06;75.09
61488;BME280;47351;53.326;-6.298;2022-10-16T04:04:16;99975.67;;;7.05;75.07
61488;BME280;47351;53.326;-6.298;2022-10-16T04:06:47;99989.60;;;7.02;75.09
61488;BME280;47351;53.326;-6.298;2022-10-16T04:09:19;100001.51;;;7.00;75.13
61488;BME280;47351;53.326;-6.298;2022-10-16T04:11:51;100010.42;;;7.00;75.14
61488;BME280;47351;53.326;-6.298;2022-10-16T04:14:29;100014.39;;;6.99;75.20
61488;BME280;47351;53.326;-6.298;2022-10-16T04:17:14;100020.01;;;7.00;75.22
61488;BME280;47351;53.326;-6.298;2022-10-16T04:19:45;100027.44;;;7.00;75.14
61488;BME280;47351;53.326;-6.298;2022-10-16T04:22:21;100027.73;;;7.01;75.01
61488;BME280;47351;53.326;-6.298;2022-10-16T04:24:56;100033.42;;;7.00;74.93
61488;BME280;47351;53.326;-6.298;2022-10-16T04:27:27;100044.66;;;7.00;74.89
61488;BME280;47351;53.326;-6.298;2022-10-16T04:30:01;100053.44;;;7.01;75.03
61488;BME280;47351;53.326;-6.298;2022-10-16T04:32:32;100057.70;;;7.03;75.04
61488;BME280;47351;53.326;-6.298;2022-10-16T04:35:04;100070.89;;;7.04;74.97
61488;BME280;47351;53.326;-6.298;2022-10-16T04:37:35;100078.45;;;7.04;74.96
61488;BME280;47351;53.326;-6.298;2022-10-16T04:40:08;100080.38;;;7.04;74.86
61488;BME280;47351;53.326;-6.298;2022-10-16T04:42:40;100081.24;;;7.05;74.83
61488;BME280;47351;53.326;-6.298;2022-10-16T04:45:11;100093.35;;;7.04;74.79
61488;BME280;47351;53.326;-6.298;2022-10-16T04:47:46;100100.17;;;7.05;74.79
61488;BME280;47351;53.326;-6.298;2022-10-16T04:50:17;100107.13;;;7.05;74.71
61488;BME280;47351;53.326;-6.298;2022-10-16T04:53:03;100113.16;;;7.05;74.66
61488;BME280;47351;53.326;-6.298;2022-10-16T04:55:34;100117.41;;;7.05;74.62
61488;BME280;47351;53.326;-6.298;2022-10-16T04:58:07;100121.77;;;7.04;74.64
61488;BME280;47351;53.326;-6.298;2022-10-16T05:00:38;100122.74;;;7.03;74.59
61488;BME280;47351;53.326;-6.298;2022-10-16T05:03:10;100117.45;;;7.01;74.53
61488;BME280;47351;53.326;-6.298;2022-10-16T05:05:45;100124.19;;;6.99;74.49
61488;BME280;47351;53.326;-6.298;2022-10-16T05:08:17;100125.61;;;6.97;74.57
61488;BME280;47351;53.326;-6.298;2022-10-16T05:11:05;100125.99;;;6.97;74.55
61488;BME280;47351;53.326;-6.298;2022-10-16T05:14:04;100118.80;;;6.98;74.67
61488;BME280;47351;53.326;-6.298;2022-10-16T05:16:35;100114.54;;;7.00;74.58
61488;BME280;47351;53.326;-6.298;2022-10-16T05:19:07;100111.07;;;7.03;74.62
61488;BME280;47351;53.326;-6.298;2022-10-16T05:21:58;100110.27;;;7.08;74.71
61488;BME280;47351;53.326;-6.298;2022-10-16T05:24:29;100108.55;;;7.12;74.63
61488;BME280;47351;53.326;-6.298;2022-10-16T05:27:01;100117.20;;;7.16;74.58
61488;BME280;47351;53.326;-6.298;2022-10-16T05:29:32;100116.95;;;7.20;74.55
61488;BME280;47351;53.326;-6.298;2022-10-16T05:32:05;100117.70;;;7.26;74.55
61488;BME280;47351;53.326;-6.298;2022-10-16T05:34:36;100122.39;;;7.30;74.46
61488;BME280;47351;53.326;-6.298;2022-10-16T05:37:07;100123.65;;;7.33;74.38
61488;BME280;47351;53.326;-6.298;2022-10-16T05:39:39;100129.37;;;7.35;74.22
61488;BME280;47351;53.326;-6.298;2022-10-16T05:42:11;100134.21;;;7.36;74.18
61488;BME280;47351;53.326;-6.298;2022-10-16T05:44:42;100130.02;;;7.37;74.09
61488;BME280;47351;53.326;-6.298;2022-10-16T05:47:15;100131.14;;;7.39;74.00
61488;BME280;47351;53.326;-6.298;2022-10-16T05:49:46;100138.63;;;7.38;73.95
61488;BME280;47351;53.326;-6.298;2022-10-16T05:52:18;100141.52;;;7.38;73.88
61488;BME280;47351;53.326;-6.298;2022-10-16T05:54:49;100147.69;;;7.38;73.72
61488;BME280;47351;53.326;-6.298;2022-10-16T05:57:21;100148.25;;;7.38;73.75
61488;BME280;47351;53.326;-6.298;2022-10-16T05:59:52;100152.48;;;7.38;73.79
61488;BME280;47351;53.326;-6.298;2022-10-16T06:02:23;100158.70;;;7.40;73.89
61488;BME280;47351;53.326;-6.298;2022-10-16T06:05:08;100162.70;;;7.42;73.93
61488;BME280;47351;53.326;-6.298;2022-10-16T06:08:01;100172.86;;;7.46;74.04
61488;BME280;47351;53.326;-6.298;2022-10-16T06:10:32;100173.95;;;7.49;73.99
61488;BME280;47351;53.326;-6.298;2022-10-16T06:13:04;100174.54;;;7.52;73.92
61488;BME280;47351;53.326;-6.298;2022-10-16T06:15:35;100177.64;;;7.53;73.91
61488;BME280;47351;53.326;-6.298;2022-10-16T06:18:08;100179.92;;;7.54;73.91
61488;BME280;47351;53.326;-6.298;2022-10-16T06:20:40;100178.57;;;7.55;73.93
61488;BME280;47351;53.326;-6.298;2022-10-16T06:23:13;100184.23;;;7.55;74.01
61488;BME280;47351;53.326;-6.298;2022-10-16T06:25:54;100182.39;;;7.55;73.91
61488;BME280;47351;53.326;-6.298;2022-10-16T06:29:06;100186.11;;;7.54;73.88
61488;BME280;47351;53.326;-6.298;2022-10-16T06:31:37;100190.42;;;7.52;73.90
61488;BME280;47351;53.326;-6.298;2022-10-16T06:34:10;100196.27;;;7.50;73.91
61488;BME280;47351;53.326;-6.298;2022-10-16T06:36:41;100198.66;;;7.47;73.99
61488;BME280;47351;53.326;-6.298;2022-10-16T06:39:13;100208.27;;;7.45;74.03
61488;BME280;47351;53.326;-6.298;2022-10-16T06:41:44;100211.92;;;7.44;73.97
61488;BME280;47351;53.326;-6.298;2022-10-16T06:44:18;100221.92;;;7.42;73.88
61488;BME280;47351;53.326;-6.298;2022-10-16T06:46:50;100227.17;;;7.39;73.98
61488;BME280;47351;53.326;-6.298;2022-10-16T06:49:22;100231.34;;;7.36;74.07
61488;BME280;47351;53.326;-6.298;2022-10-16T06:51:53;100240.23;;;7.34;74.14
61488;BME280;47351;53.326;-6.298;2022-10-16T06:54:25;100244.58;;;7.33;74.22
61488;BME280;47351;53.326;-6.298;2022-10-16T06:56:56;100252.27;;;7.33;74.33
61488;BME280;47351;53.326;-6.298;2022-10-16T06:59:29;100260.29;;;7.32;74.35
61488;BME280;47351;53.326;-6.298;2022-10-16T07:02:01;100268.08;;;7.32;74.39
61488;BME280;47351;53.326;-6.298;2022-10-16T07:04:32;100277.31;;;7.34;74.45
61488;BME280;47351;53.326;-6.298;2022-10-16T07:07:03;100277.93;;;7.35;74.37
61488;BME280;47351;53.326;-6.298;2022-10-16T07:09:38;100280.11;;;7.37;74.41
61488;BME280;47351;53.326;-6.298;2022-10-16T07:12:09;100286.30;;;7.40;74.34
61488;BME280;47351;53.326;-6.298;2022-10-16T07:14:40;100292.97;;;7.43;74.10
61488;BME280;47351;53.326;-6.298;2022-10-16T07:17:12;100301.96;;;7.44;73.83
61488;BME280;47351;53.326;-6.298;2022-10-16T07:19:44;100308.00;;;7.44;73.72
61488;BME280;47351;53.326;-6.298;2022-10-16T07:22:15;100316.04;;;7.45;73.71
61488;BME280;47351;53.326;-6.298;2022-10-16T07:24:47;100323.27;;;7.48;73.70
61488;BME280;47351;53.326;-6.298;2022-10-16T07:27:21;100329.69;;;7.51;73.78
61488;BME280;47351;53.326;-6.298;2022-10-16T07:29:53;100339.27;;;7.55;73.75
61488;BME280;47351;53.326;-6.298;2022-10-16T07:32:25;100344.85;;;7.59;73.67
61488;BME280;47351;53.326;-6.298;2022-10-16T07:34:57;100353.65;;;7.64;73.63
61488;BME280;47351;53.326;-6.298;2022-10-16T07:37:28;100352.05;;;7.68;73.53
61488;BME280;47351;53.326;-6.298;2022-10-16T07:40:00;100353.72;;;7.72;73.52
61488;BME280;47351;53.326;-6.298;2022-10-16T07:42:32;100362.30;;;7.79;73.40
61488;BME280;47351;53.326;-6.298;2022-10-16T07:45:03;100370.75;;;7.87;73.33
61488;BME280;47351;53.326;-6.298;2022-10-16T07:47:35;100376.31;;;7.96;73.20
61488;BME280;47351;53.326;-6.298;2022-10-16T07:50:07;100379.05;;;8.04;73.13
61488;BME280;47351;53.326;-6.298;2022-10-16T07:52:38;100386.67;;;8.14;73.13
61488;BME280;47351;53.326;-6.298;2022-10-16T07:55:10;100394.46;;;8.21;73.00
61488;BME280;47351;53.326;-6.298;2022-10-16T07:57:43;100401.92;;;8.28;72.90
61488;BME280;47351;53.326;-6.298;2022-10-16T08:00:15;100408.57;;;8.35;72.85
61488;BME280;47351;53.326;-6.298;2022-10-16T08:02:48;100418.66;;;8.43;72.77
61488;BME280;47351;53.326;-6.298;2022-10-16T08:05:19;100425.20;;;8.51;72.76
61488;BME280;47351;53.326;-6.298;2022-10-16T08:07:51;100431.08;;;8.60;72.56
61488;BME280;47351;53.326;-6.298;2022-10-16T08:10:25;100430.99;;;8.67;72.35
61488;BME280;47351;53.326;-6.298;2022-10-16T08:12:58;100427.86;;;8.76;72.24
61488;BME280;47351;53.326;-6.298;2022-10-16T08:15:29;100429.27;;;8.85;72.25
61488;BME280;47351;53.326;-6.298;2022-10-16T08:18:02;100421.77;;;8.94;72.12
61488;BME280;47351;53.326;-6.298;2022-10-16T08:20:34;100424.31;;;9.02;71.83
61488;BME280;47351;53.326;-6.298;2022-10-16T08:23:07;100421.89;;;9.08;71.62
61488;BME280;47351;53.326;-6.298;2022-10-16T08:25:41;100419.67;;;9.16;71.63
61488;BME280;47351;53.326;-6.298;2022-10-16T08:28:13;100420.92;;;9.23;71.43
61488;BME280;47351;53.326;-6.298;2022-10-16T08:30:47;100420.14;;;9.33;71.41
61488;BME280;47351;53.326;-6.298;2022-10-16T08:33:19;100420.90;;;9.44;71.34
61488;BME280;47351;53.326;-6.298;2022-10-16T08:35:54;100419.67;;;9.58;71.17
61488;BME280;47351;53.326;-6.298;2022-10-16T08:38:28;100416.74;;;9.74;70.88
61488;BME280;47351;53.326;-6.298;2022-10-16T08:41:17;100415.46;;;9.97;70.49
61488;BME280;47351;53.326;-6.298;2022-10-16T08:44:19;100408.96;;;10.28;70.20
61488;BME280;47351;53.326;-6.298;2022-10-16T08:46:57;100414.96;;;10.68;69.87
61488;BME280;47351;53.326;-6.298;2022-10-16T08:49:32;100418.42;;;11.00;69.16
61488;BME280;47351;53.326;-6.298;2022-10-16T08:52:06;100422.14;;;11.30;68.43
61488;BME280;47351;53.326;-6.298;2022-10-16T08:54:46;100422.73;;;11.55;67.87
61488;BME280;47351;53.326;-6.298;2022-10-16T08:57:31;100421.71;;;11.72;67.19
61488;BME280;47351;53.326;-6.298;2022-10-16T09:00:14;100422.02;;;11.82;66.77
61488;BME280;47351;53.326;-6.298;2022-10-16T09:02:58;100420.21;;;11.89;66.67
61488;BME280;47351;53.326;-6.298;2022-10-16T09:06:00;100421.98;;;11.97;66.52
61488;BME280;47351;53.326;-6.298;2022-10-16T09:08:46;100428.15;;;12.06;66.41
61488;BME280;47351;53.326;-6.298;2022-10-16T09:11:30;100433.52;;;12.14;66.06
61488;BME280;47351;53.326;-6.298;2022-10-16T09:14:17;100434.61;;;12.21;65.80
61488;BME280;47351;53.326;-6.298;2022-10-16T09:16:56;100437.17;;;12.32;65.52
61488;BME280;47351;53.326;-6.298;2022-10-16T09:19:35;100437.55;;;12.42;65.33
61488;BME280;47351;53.326;-6.298;2022-10-16T09:22:14;100439.81;;;12.49;64.96
61488;BME280;47351;53.326;-6.298;2022-10-16T09:24:45;100443.45;;;12.51;64.45
61488;BME280;47351;53.326;-6.298;2022-10-16T09:27:17;100448.33;;;12.51;64.25
61488;BME280;47351;53.326;-6.298;2022-10-16T09:29:49;100458.90;;;12.49;64.23
61488;BME280;47351;53.326;-6.298;2022-10-16T09:32:29;100465.30;;;12.50;64.06
61488;BME280;47351;53.326;-6.298;2022-10-16T09:35:15;100470.74;;;12.51;64.19
61488;BME280;47351;53.326;-6.298;2022-10-16T09:37:55;100474.69;;;12.52;63.94
61488;BME280;47351;53.326;-6.298;2022-10-16T09:40:36;100476.73;;;12.53;63.87
61488;BME280;47351;53.326;-6.298;2022-10-16T09:43:23;100479.25;;;12.58;63.83
61488;BME280;47351;53.326;-6.298;2022-10-16T09:46:01;100475.75;;;12.65;63.67
61488;BME280;47351;53.326;-6.298;2022-10-16T09:48:39;100476.82;;;12.73;63.24
61488;BME280;47351;53.326;-6.298;2022-10-16T09:51:16;100468.58;;;12.82;62.90
61488;BME280;47351;53.326;-6.298;2022-10-16T09:53:53;100461.73;;;12.91;62.87
61488;BME280;47351;53.326;-6.298;2022-10-16T09:56:27;100464.67;;;13.03;62.76
61488;BME280;47351;53.326;-6.298;2022-10-16T09:59:13;100473.48;;;13.18;62.63
61488;BME280;47351;53.326;-6.298;2022-10-16T10:01:46;100479.73;;;13.32;62.37
61488;BME280;47351;53.326;-6.298;2022-10-16T10:04:22;100484.25;;;13.42;62.07
61488;BME280;47351;53.326;-6.298;2022-10-16T10:06:55;100483.70;;;13.47;61.67
61488;BME280;47351;53.326;-6.298;2022-10-16T10:09:28;100476.16;;;13.49;61.63
61488;BME280;47351;53.326;-6.298;2022-10-16T10:12:02;100473.36;;;13.53;61.71
61488;BME280;47351;53.326;-6.298;2022-10-16T10:14:37;100474.83;;;13.56;61.74
61488;BME280;47351;53.326;-6.298;2022-10-16T10:17:15;100474.91;;;13.53;61.42
61488;BME280;47351;53.326;-6.298;2022-10-16T10:19:57;100471.05;;;13.50;61.60
61488;BME280;47351;53.326;-6.298;2022-10-16T10:22:41;100461.79;;;13.51;61.89
61488;BME280;47351;53.326;-6.298;2022-10-16T10:25:23;100456.58;;;13.52;62.05
61488;BME280;47351;53.326;-6.298;2022-10-16T10:28:10;100460.06;;;13.52;62.07
61488;BME280;47351;53.326;-6.298;2022-10-16T10:30:53;100469.96;;;13.46;61.66
61488;BME280;47351;53.326;-6.298;2022-10-16T10:33:33;100466.69;;;13.38;61.56
61488;BME280;47351;53.326;-6.298;2022-10-16T10:36:22;100456.25;;;13.32;61.90
61488;BME280;47351;53.326;-6.298;2022-10-16T10:39:00;100451.63;;;13.30;62.02
61488;BME280;47351;53.326;-6.298;2022-10-16T10:42:02;100457.79;;;13.30;61.96
61488;BME280;47351;53.326;-6.298;2022-10-16T10:44:53;100464.34;;;13.22;61.32
61488;BME280;47351;53.326;-6.298;2022-10-16T10:47:34;100467.25;;;13.16;61.35
61488;BME280;47351;53.326;-6.298;2022-10-16T10:50:17;100473.40;;;13.11;61.19
61488;BME280;47351;53.326;-6.298;2022-10-16T10:52:59;100472.33;;;13.08;61.12
61488;BME280;47351;53.326;-6.298;2022-10-16T10:55:40;100473.24;;;13.11;61.09
61488;BME280;47351;53.326;-6.298;2022-10-16T10:58:37;100481.21;;;13.15;60.97
61488;BME280;47351;53.326;-6.298;2022-10-16T11:01:13;100485.58;;;13.14;60.66
61488;BME280;47351;53.326;-6.298;2022-10-16T11:04:15;100490.19;;;13.09;60.51
61488;BME280;47351;53.326;-6.298;2022-10-16T11:06:57;100490.33;;;13.00;60.42
61488;BME280;47351;53.326;-6.298;2022-10-16T11:09:35;100486.88;;;12.92;60.56
61488;BME280;47351;53.326;-6.298;2022-10-16T11:12:14;100482.21;;;12.82;60.67
61488;BME280;47351;53.326;-6.298;2022-10-16T11:14:51;100486.17;;;12.74;60.85
61488;BME280;47351;53.326;-6.298;2022-10-16T11:17:30;100491.33;;;12.65;60.87
61488;BME280;47351;53.326;-6.298;2022-10-16T11:20:11;100490.12;;;12.59;60.86
61488;BME280;47351;53.326;-6.298;2022-10-16T11:22:47;100490.11;;;12.53;60.75
61488;BME280;47351;53.326;-6.298;2022-10-16T11:25:23;100493.81;;;12.51;60.64
61488;BME280;47351;53.326;-6.298;2022-10-16T11:28:00;100503.39;;;12.50;60.65
61488;BME280;47351;53.326;-6.298;2022-10-16T11:30:40;100505.40;;;12.51;60.71
61488;BME280;47351;53.326;-6.298;2022-10-16T11:33:24;100503.15;;;12.52;60.67
61488;BME280;47351;53.326;-6.298;2022-10-16T11:36:08;100499.88;;;12.51;60.62
61488;BME280;47351;53.326;-6.298;2022-10-16T11:38:47;100501.33;;;12.48;60.60
61488;BME280;47351;53.326;-6.298;2022-10-16T11:41:26;100504.71;;;12.43;60.50
61488;BME280;47351;53.326;-6.298;2022-10-16T11:44:09;100495.83;;;12.40;60.55
61488;BME280;47351;53.326;-6.298;2022-10-16T11:46:52;100491.61;;;12.36;60.53
61488;BME280;47351;53.326;-6.298;2022-10-16T11:49:48;100494.98;;;12.35;60.58
61488;BME280;47351;53.326;-6.298;2022-10-16T11:52:28;100492.02;;;12.34;60.57
61488;BME280;47351;53.326;-6.298;2022-10-16T11:55:06;100488.35;;;12.33;60.70
61488;BME280;47351;53.326;-6.298;2022-10-16T11:57:47;100484.29;;;12.33;60.70
61488;BME280;47351;53.326;-6.298;2022-10-16T12:00:24;100479.66;;;12.33;60.75
61488;BME280;47351;53.326;-6.298;2022-10-16T12:03:03;100481.58;;;12.33;60.64
61488;BME280;47351;53.326;-6.298;2022-10-16T12:06:00;100474.52;;;12.32;60.66
61488;BME280;47351;53.326;-6.298;2022-10-16T12:08:36;100466.66;;;12.32;60.71
61488;BME280;47351;53.326;-6.298;2022-10-16T12:11:31;100459.55;;;12.32;60.66
61488;BME280;47351;53.326;-6.298;2022-10-16T12:14:17;100456.95;;;12.29;60.40
61488;BME280;47351;53.326;-6.298;2022-10-16T12:16:56;100456.16;;;12.27;60.43
61488;BME280;47351;53.326;-6.298;2022-10-16T12:19:28;100455.56;;;12.26;60.60
61488;BME280;47351;53.326;-6.298;2022-10-16T12:22:02;100448.48;;;12.23;60.54
61488;BME280;47351;53.326;-6.298;2022-10-16T12:24:37;100441.35;;;12.22;60.22
61488;BME280;47351;53.326;-6.298;2022-10-16T12:27:28;100443.38;;;12.21;60.00
61488;BME280;47351;53.326;-6.298;2022-10-16T12:30:02;100445.19;;;12.21;60.00
61488;BME280;47351;53.326;-6.298;2022-10-16T12:32:37;100443.75;;;12.18;59.71
61488;BME280;47351;53.326;-6.298;2022-10-16T12:35:22;100441.13;;;12.15;59.73
61488;BME280;47351;53.326;-6.298;2022-10-16T12:38:03;100452.48;;;12.09;59.54
61488;BME280;47351;53.326;-6.298;2022-10-16T12:40:37;100455.27;;;12.03;59.84
61488;BME280;47351;53.326;-6.298;2022-10-16T12:43:27;100457.19;;;11.99;59.79
61488;BME280;47351;53.326;-6.298;2022-10-16T12:46:04;100453.02;;;11.93;59.99
61488;BME280;47351;53.326;-6.298;2022-10-16T12:48:37;100448.84;;;11.89;60.01
61488;BME280;47351;53.326;-6.298;2022-10-16T12:51:25;100451.46;;;11.86;60.09
61488;BME280;47351;53.326;-6.298;2022-10-16T12:54:09;100448.42;;;11.83;59.95
61488;BME280;47351;53.326;-6.298;2022-10-16T12:56:54;100444.45;;;11.78;59.92
61488;BME280;47351;53.326;-6.298;2022-10-16T12:59:37;100432.88;;;11.73;59.81
61488;BME280;47351;53.326;-6.298;2022-10-16T13:02:41;100428.22;;;11.70;59.97
61488;BME280;47351;53.326;-6.298;2022-10-16T13:05:28;100419.18;;;11.66;59.93
61488;BME280;47351;53.326;-6.298;2022-10-16T13:08:17;100417.72;;;11.62;60.18
61488;BME280;47351;53.326;-6.298;2022-10-16T13:11:02;100414.24;;;11.57;60.46
61488;BME280;47351;53.326;-6.298;2022-10-16T13:13:49;100405.14;;;11.52;60.54
61488;BME280;47351;53.326;-6.298;2022-10-16T13:16:30;100399.15;;;11.47;60.57
61488;BME280;47351;53.326;-6.298;2022-10-16T13:19:06;100396.97;;;11.39;60.67
61488;BME280;47351;53.326;-6.298;2022-10-16T13:21:48;100393.80;;;11.32;60.90
61488;BME280;47351;53.326;-6.298;2022-10-16T13:24:31;100388.75;;;11.27;61.00
61488;BME280;47351;53.326;-6.298;2022-10-16T13:27:18;100380.63;;;11.23;61.19
61488;BME280;47351;53.326;-6.298;2022-10-16T13:29:59;100375.48;;;11.19;61.18
61488;BME280;47351;53.326;-6.298;2022-10-16T13:32:32;100371.08;;;11.15;61.36
61488;BME280;47351;53.326;-6.298;2022-10-16T13:35:15;100374.61;;;11.12;61.61
61488;BME280;47351;53.326;-6.298;2022-10-16T13:37:49;100376.08;;;11.08;61.79
61488;BME280;47351;53.326;-6.298;2022-10-16T13:40:22;100374.95;;;11.04;61.94